sensor_id;sensor_type;location;lat;lon;timestamp;pressure;altitude;pressure_sealevel;temperature;humidity
51297;BME280;37380;45.186;9.792;2023-05-23T00:02:23;100728.66;;;17.39;100.00
51297;BME280;37380;45.186;9.792;2023-05-23T00:05:19;100604.81;;;16.62;100.00
51297;BME280;37380;45.186;9.792;2023-05-23T00:08:13;100712.56;;;17.12;100.00
51297;BME280;37380;45.186;9.792;2023-05-23T00:11:02;100688.78;;;17.06;100.00
51297;BME280;37380;45.186;9.792;2023-05-23T00:13:46;100738.25;;;17.28;100.00
51297;BME280;37380;45.186;9.792;2023-05-23T00:17:19;100739.16;;;17.35;100.00
51297;BME280;37380;45.186;9.792;2023-05-23T00:20:25;100688.78;;;17.10;100.00
51297;BME280;37380;45.186;9.792;2023-05-23T00:23:17;100810.84;;;17.79;100.00
51297;BME280;37380;45.186;9.792;2023-05-23T00:26:13;100736.41;;;17.21;100.00
51297;BME280;37380;45.186;9.792;2023-05-23T00:29:02;100700.13;;;16.94;100.00
51297;BME280;37380;45.186;9.792;2023-05-23T00:31:35;100819.59;;;17.77;100.00
51297;BME280;37380;45.186;9.792;2023-05-23T00:34:27;100764.72;;;17.42;100.00
51297;BME280;37380;45.186;9.792;2023-05-23T00:37:03;100768.25;;;17.38;100.00
51297;BME280;37380;45.186;9.792;2023-05-23T00:39:59;100675.28;;;16.73;100.00
51297;BME280;37380;45.186;9.792;2023-05-23T00:42:58;100687.53;;;16.67;100.00
51297;BME280;37380;45.186;9.792;2023-05-23T00:46:02;100804.28;;;17.31;100.00
51297;BME280;37380;45.186;9.792;2023-05-23T00:48:51;100819.31;;;17.37;100.00
51297;BME280;37380;45.186;9.792;2023-05-23T00:51:36;100767.13;;;17.13;100.00
51297;BME280;37380;45.186;9.792;2023-05-23T00:54:32;100769.78;;;17.11;100.00
51297;BME280;37380;45.186;9.792;2023-05-23T00:57:00;100688.47;;;16.73;100.00
51297;BME280;37380;45.186;9.792;2023-05-23T00:59:39;100814.91;;;17.42;100.00
51297;BME280;37380;45.186;9.792;2023-05-23T01:03:00;100798.09;;;17.29;100.00
51297;BME280;37380;45.186;9.792;2023-05-23T01:06:02;100690.28;;;16.76;100.00
51297;BME280;37380;45.186;9.792;2023-05-23T01:08:43;100687.38;;;16.53;100.00
51297;BME280;37380;45.186;9.792;2023-05-23T01:27:00;100795.31;;;17.15;100.00
51297;BME280;37380;45.186;9.792;2023-05-23T01:29:36;100723.66;;;16.74;100.00
51297;BME280;37380;45.186;9.792;2023-05-23T01:32:27;100720.94;;;16.68;100.00
51297;BME280;37380;45.186;9.792;2023-05-23T01:35:03;100802.28;;;17.06;100.00
51297;BME280;37380;45.186;9.792;2023-05-23T01:37:55;100664.50;;;16.50;100.00
51297;BME280;37380;45.186;9.792;2023-05-23T01:40:53;100744.94;;;16.88;100.00
51297;BME280;37380;45.186;9.792;2023-05-23T01:44:33;100701.41;;;16.47;100.00
51297;BME280;37380;45.186;9.792;2023-05-23T01:47:53;100639.38;;;16.02;100.00
51297;BME280;37380;45.186;9.792;2023-05-23T01:50:39;100788.56;;;16.58;100.00
51297;BME280;37380;45.186;9.792;2023-05-23T01:53:39;100703.75;;;16.23;100.00
51297;BME280;37380;45.186;9.792;2023-05-23T01:56:28;100682.44;;;16.04;100.00
51297;BME280;37380;45.186;9.792;2023-05-23T01:59:02;100732.75;;;16.23;100.00
51297;BME280;37380;45.186;9.792;2023-05-23T02:01:46;100822.13;;;16.71;100.00
51297;BME280;37380;45.186;9.792;2023-05-23T02:04:27;100750.75;;;16.61;100.00
51297;BME280;37380;45.186;9.792;2023-05-23T02:07:17;100686.94;;;16.12;100.00
51297;BME280;37380;45.186;9.792;2023-05-23T02:10:19;100669.22;;;15.98;100.00
51297;BME280;37380;45.186;9.792;2023-05-23T02:13:27;100721.47;;;16.35;100.00
51297;BME280;37380;45.186;9.792;2023-05-23T02:16:18;100539.41;;;15.42;100.00
51297;BME280;37380;45.186;9.792;2023-05-23T02:22:37;100670.88;;;15.93;100.00
51297;BME280;37380;45.186;9.792;2023-05-23T02:25:09;100575.09;;;15.20;100.00
51297;BME280;37380;45.186;9.792;2023-05-23T02:27:54;100551.19;;;15.03;100.00
51297;BME280;37380;45.186;9.792;2023-05-23T02:30:26;100684.50;;;15.61;100.00
51297;BME280;37380;45.186;9.792;2023-05-23T02:33:14;100672.16;;;15.59;100.00
51297;BME280;37380;45.186;9.792;2023-05-23T02:35:59;100752.69;;;16.01;100.00
51297;BME280;37380;45.186;9.792;2023-05-23T02:38:29;100811.97;;;16.34;100.00
51297;BME280;37380;45.186;9.792;2023-05-23T02:41:29;100779.41;;;16.28;100.00
51297;BME280;37380;45.186;9.792;2023-05-23T02:45:02;100681.03;;;15.62;100.00
51297;BME280;37380;45.186;9.792;2023-05-23T02:48:16;100806.66;;;16.29;100.00
51297;BME280;37380;45.186;9.792;2023-05-23T02:50:52;100736.59;;;15.81;100.00
51297;BME280;37380;45.186;9.792;2023-05-23T02:53:35;100715.66;;;15.90;100.00
51297;BME280;37380;45.186;9.792;2023-05-23T02:56:31;100800.94;;;16.65;100.00
51297;BME280;37380;45.186;9.792;2023-05-23T02:59:41;100741.03;;;15.85;100.00
51297;BME280;37380;45.186;9.792;2023-05-23T03:03:02;100738.19;;;15.68;100.00
51297;BME280;37380;45.186;9.792;2023-05-23T03:06:15;100803.03;;;16.21;100.00
51297;BME280;37380;45.186;9.792;2023-05-23T03:08:51;100779.13;;;16.07;100.00
51297;BME280;37380;45.186;9.792;2023-05-23T03:11:35;100680.97;;;15.59;100.00
51297;BME280;37380;45.186;9.792;2023-05-23T03:14:23;100768.59;;;16.07;100.00
51297;BME280;37380;45.186;9.792;2023-05-23T03:17:17;100742.88;;;15.91;100.00
51297;BME280;37380;45.186;9.792;2023-05-23T03:20:02;100593.16;;;14.95;100.00
51297;BME280;37380;45.186;9.792;2023-05-23T03:23:21;100678.19;;;15.50;100.00
51297;BME280;37380;45.186;9.792;2023-05-23T03:26:09;100703.59;;;15.45;100.00
51297;BME280;37380;45.186;9.792;2023-05-23T03:29:12;100686.72;;;15.32;100.00
51297;BME280;37380;45.186;9.792;2023-05-23T03:31:56;100802.94;;;16.12;100.00
51297;BME280;37380;45.186;9.792;2023-05-23T03:34:36;100725.63;;;15.52;100.00
51297;BME280;37380;45.186;9.792;2023-05-23T03:37:39;100658.38;;;15.14;100.00
51297;BME280;37380;45.186;9.792;2023-05-23T03:40:37;100611.28;;;14.77;100.00
51297;BME280;37380;45.186;9.792;2023-05-23T03:43:57;100744.47;;;15.78;100.00
51297;BME280;37380;45.186;9.792;2023-05-23T03:46:31;100682.63;;;15.51;100.00
51297;BME280;37380;45.186;9.792;2023-05-23T03:49:16;100815.41;;;16.26;100.00
51297;BME280;37380;45.186;9.792;2023-05-23T03:51:46;100739.88;;;15.66;100.00
51297;BME280;37380;45.186;9.792;2023-05-23T03:54:54;100677.13;;;15.36;100.00
51297;BME280;37380;45.186;9.792;2023-05-23T03:57:36;100813.72;;;16.30;100.00
51297;BME280;37380;45.186;9.792;2023-05-23T04:00:18;100816.69;;;16.61;100.00
51297;BME280;37380;45.186;9.792;2023-05-23T04:03:25;100826.22;;;16.48;100.00
51297;BME280;37380;45.186;9.792;2023-05-23T04:06:16;100833.22;;;16.44;100.00
51297;BME280;37380;45.186;9.792;2023-05-23T04:09:01;100613.78;;;15.27;100.00
51297;BME280;37380;45.186;9.792;2023-05-23T04:11:50;100798.94;;;16.44;100.00
51297;BME280;37380;45.186;9.792;2023-05-23T04:14:36;100764.72;;;16.52;100.00
51297;BME280;37380;45.186;9.792;2023-05-23T04:17:19;100686.16;;;16.22;100.00
51297;BME280;37380;45.186;9.792;2023-05-23T04:19:53;100695.25;;;16.48;100.00
51297;BME280;37380;45.186;9.792;2023-05-23T04:22:24;100830.50;;;17.13;100.00
51297;BME280;37380;45.186;9.792;2023-05-23T04:24:59;100621.16;;;16.21;100.00
51297;BME280;37380;45.186;9.792;2023-05-23T04:27:38;100814.44;;;17.87;100.00
51297;BME280;37380;45.186;9.792;2023-05-23T04:30:13;100712.91;;;17.55;100.00
51297;BME280;37380;45.186;9.792;2023-05-23T04:32:49;100825.38;;;18.57;100.00
51297;BME280;37380;45.186;9.792;2023-05-23T04:35:27;100830.00;;;19.27;100.00
51297;BME280;37380;45.186;9.792;2023-05-23T04:38:09;100754.03;;;19.13;100.00
51297;BME280;37380;45.186;9.792;2023-05-23T04:40:49;100732.81;;;19.45;100.00
51297;BME280;37380;45.186;9.792;2023-05-23T04:44:29;100798.13;;;20.11;100.00
51297;BME280;37380;45.186;9.792;2023-05-23T04:47:38;100641.78;;;19.60;100.00
51297;BME280;37380;45.186;9.792;2023-05-23T04:50:43;100841.19;;;20.90;100.00
51297;BME280;37380;45.186;9.792;2023-05-23T04:53:19;100842.78;;;21.17;100.00
51297;BME280;37380;45.186;9.792;2023-05-23T04:55:53;100732.00;;;21.25;100.00
51297;BME280;37380;45.186;9.792;2023-05-23T04:58:30;100679.69;;;21.29;100.00
51297;BME280;37380;45.186;9.792;2023-05-23T05:01:03;100712.47;;;22.12;100.00
51297;BME280;37380;45.186;9.792;2023-05-23T05:04:02;100798.06;;;22.53;100.00
51297;BME280;37380;45.186;9.792;2023-05-23T05:07:03;100607.72;;;20.56;100.00
51297;BME280;37380;45.186;9.792;2023-05-23T05:10:02;100653.94;;;21.41;100.00
51297;BME280;37380;45.186;9.792;2023-05-23T05:13:55;100825.13;;;22.87;100.00
51297;BME280;37380;45.186;9.792;2023-05-23T05:17:18;100727.19;;;22.43;100.00
51297;BME280;37380;45.186;9.792;2023-05-23T05:20:31;100737.84;;;23.04;100.00
51297;BME280;37380;45.186;9.792;2023-05-23T05:23:40;100838.44;;;24.48;97.15
51297;BME280;37380;45.186;9.792;2023-05-23T05:26:53;100808.31;;;23.42;99.83
51297;BME280;37380;45.186;9.792;2023-05-23T05:30:00;100718.03;;;23.70;97.93
51297;BME280;37380;45.186;9.792;2023-05-23T05:33:03;100833.53;;;24.25;100.00
51297;BME280;37380;45.186;9.792;2023-05-23T05:36:21;100754.75;;;24.48;91.49
51297;BME280;37380;45.186;9.792;2023-05-23T05:39:01;100718.78;;;24.64;92.05
51297;BME280;37380;45.186;9.792;2023-05-23T05:42:38;100783.28;;;25.59;89.22
51297;BME280;37380;45.186;9.792;2023-05-23T05:46:06;100709.25;;;24.52;90.25
51297;BME280;37380;45.186;9.792;2023-05-23T05:49:49;100834.06;;;25.26;93.50
51297;BME280;37380;45.186;9.792;2023-05-23T05:52:58;100817.72;;;25.73;91.01
51297;BME280;37380;45.186;9.792;2023-05-23T05:55:39;100814.69;;;25.52;91.39
51297;BME280;37380;45.186;9.792;2023-05-23T05:58:45;100731.78;;;24.78;91.69
51297;BME280;37380;45.186;9.792;2023-05-23T06:02:00;100844.94;;;26.25;85.04
51297;BME280;37380;45.186;9.792;2023-05-23T06:04:31;100768.19;;;24.43;100.00
51297;BME280;37380;45.186;9.792;2023-05-23T06:07:11;100826.75;;;24.94;100.00
51297;BME280;37380;45.186;9.792;2023-05-23T06:09:57;100827.25;;;25.10;100.00
51297;BME280;37380;45.186;9.792;2023-05-23T06:12:29;100728.66;;;25.35;90.59
51297;BME280;37380;45.186;9.792;2023-05-23T06:14:57;100701.88;;;25.68;90.82
51297;BME280;37380;45.186;9.792;2023-05-23T06:17:27;100775.41;;;25.55;98.31
51297;BME280;37380;45.186;9.792;2023-05-23T06:19:58;100768.22;;;24.40;98.56
51297;BME280;37380;45.186;9.792;2023-05-23T06:22:47;100829.09;;;25.83;89.94
51297;BME280;37380;45.186;9.792;2023-05-23T06:25:53;100837.22;;;24.63;98.45
51297;BME280;37380;45.186;9.792;2023-05-23T06:28:43;100724.56;;;24.83;96.97
51297;BME280;37380;45.186;9.792;2023-05-23T06:31:19;100741.44;;;24.46;100.00
51297;BME280;37380;45.186;9.792;2023-05-23T06:33:47;100719.91;;;24.12;96.81
51297;BME280;37380;45.186;9.792;2023-05-23T06:39:26;100748.28;;;26.01;93.94
51297;BME280;37380;45.186;9.792;2023-05-23T06:42:23;100738.19;;;25.78;87.43
51297;BME280;37380;45.186;9.792;2023-05-23T06:45:32;100777.03;;;27.13;85.62
51297;BME280;37380;45.186;9.792;2023-05-23T06:48:04;100725.94;;;26.63;86.91
51297;BME280;37380;45.186;9.792;2023-05-23T06:50:39;100788.66;;;27.14;85.87
51297;BME280;37380;45.186;9.792;2023-05-23T06:53:11;100760.94;;;27.13;82.67
51297;BME280;37380;45.186;9.792;2023-05-23T06:55:48;100775.44;;;28.36;78.37
51297;BME280;37380;45.186;9.792;2023-05-23T06:59:07;100785.69;;;28.26;81.27
51297;BME280;37380;45.186;9.792;2023-05-23T07:02:17;100804.09;;;28.84;71.92
51297;BME280;37380;45.186;9.792;2023-05-23T07:05:33;100745.16;;;27.57;72.66
51297;BME280;37380;45.186;9.792;2023-05-23T07:08:20;100835.47;;;27.03;81.86
51297;BME280;37380;45.186;9.792;2023-05-23T07:11:03;100727.78;;;27.94;82.02
51297;BME280;37380;45.186;9.792;2023-05-23T07:13:50;100824.22;;;28.50;75.51
51297;BME280;37380;45.186;9.792;2023-05-23T07:17:00;100824.97;;;29.23;68.04
51297;BME280;37380;45.186;9.792;2023-05-23T07:20:13;100797.78;;;28.13;82.24
51297;BME280;37380;45.186;9.792;2023-05-23T07:23:18;100697.44;;;27.14;76.31
51297;BME280;37380;45.186;9.792;2023-05-23T07:25:55;100739.63;;;26.54;84.29
51297;BME280;37380;45.186;9.792;2023-05-23T07:29:01;100807.63;;;27.36;75.23
51297;BME280;37380;45.186;9.792;2023-05-23T07:31:58;100770.66;;;24.93;88.20
51297;BME280;37380;45.186;9.792;2023-05-23T07:34:27;100794.50;;;25.02;89.85
51297;BME280;37380;45.186;9.792;2023-05-23T07:37:01;100819.59;;;24.95;93.04
51297;BME280;37380;45.186;9.792;2023-05-23T07:39:36;100816.19;;;24.01;97.98
51297;BME280;37380;45.186;9.792;2023-05-23T07:42:17;100754.44;;;25.72;89.89
51297;BME280;37380;45.186;9.792;2023-05-23T07:45:25;100780.38;;;28.25;83.43
51297;BME280;37380;45.186;9.792;2023-05-23T07:48:28;100824.47;;;29.35;68.31
51297;BME280;37380;45.186;9.792;2023-05-23T07:51:32;100768.34;;;25.86;82.34
51297;BME280;37380;45.186;9.792;2023-05-23T07:54:32;100769.34;;;26.45;80.30
51297;BME280;37380;45.186;9.792;2023-05-23T07:57:03;100840.56;;;27.67;78.02
51297;BME280;37380;45.186;9.792;2023-05-23T07:59:40;100815.91;;;25.00;91.03
51297;BME280;37380;45.186;9.792;2023-05-23T08:02:53;100739.94;;;23.88;94.91
51297;BME280;37380;45.186;9.792;2023-05-23T08:06:08;100797.44;;;26.61;91.80
51297;BME280;37380;45.186;9.792;2023-05-23T08:08:45;100760.19;;;25.22;86.01
51297;BME280;37380;45.186;9.792;2023-05-23T08:11:16;100828.34;;;25.76;86.37
51297;BME280;37380;45.186;9.792;2023-05-23T08:13:50;100725.06;;;26.62;81.81
51297;BME280;37380;45.186;9.792;2023-05-23T08:16:49;100820.28;;;27.85;93.38
51297;BME280;37380;45.186;9.792;2023-05-23T08:19:24;100633.69;;;26.97;87.22
51297;BME280;37380;45.186;9.792;2023-05-23T08:21:52;100702.78;;;26.89;74.01
51297;BME280;37380;45.186;9.792;2023-05-23T08:24:20;100770.03;;;26.22;79.20
51297;BME280;37380;45.186;9.792;2023-05-23T08:26:55;100775.28;;;25.93;84.63
51297;BME280;37380;45.186;9.792;2023-05-23T08:29:29;100775.44;;;25.87;85.82
51297;BME280;37380;45.186;9.792;2023-05-23T08:32:02;100755.16;;;26.41;90.56
51297;BME280;37380;45.186;9.792;2023-05-23T08:34:36;100766.88;;;27.51;78.82
51297;BME280;37380;45.186;9.792;2023-05-23T08:37:10;100796.16;;;26.12;82.85
51297;BME280;37380;45.186;9.792;2023-05-23T08:39:39;100642.56;;;25.21;80.54
51297;BME280;37380;45.186;9.792;2023-05-23T08:42:55;100778.88;;;26.24;82.43
51297;BME280;37380;45.186;9.792;2023-05-23T08:45:57;100780.50;;;27.18;77.03
51297;BME280;37380;45.186;9.792;2023-05-23T08:48:59;100783.88;;;27.76;84.39
51297;BME280;37380;45.186;9.792;2023-05-23T08:51:34;100764.97;;;27.00;78.89
51297;BME280;37380;45.186;9.792;2023-05-23T08:54:14;100782.13;;;27.75;82.16
51297;BME280;37380;45.186;9.792;2023-05-23T08:56:45;100822.59;;;28.46;79.36
51297;BME280;37380;45.186;9.792;2023-05-23T08:59:32;100777.88;;;27.95;81.07
51297;BME280;37380;45.186;9.792;2023-05-23T09:02:48;100704.94;;;26.77;88.16
51297;BME280;37380;45.186;9.792;2023-05-23T09:05:57;100809.72;;;26.98;80.47
51297;BME280;37380;45.186;9.792;2023-05-23T09:08:26;100707.13;;;27.19;91.25
51297;BME280;37380;45.186;9.792;2023-05-23T09:11:21;100642.03;;;27.64;86.41
51297;BME280;37380;45.186;9.792;2023-05-23T09:13:48;100758.16;;;29.12;79.18
51297;BME280;37380;45.186;9.792;2023-05-23T09:16:18;100651.28;;;25.27;77.81
51297;BME280;37380;45.186;9.792;2023-05-23T09:19:12;100616.38;;;24.63;80.65
51297;BME280;37380;45.186;9.792;2023-05-23T09:21:47;100619.16;;;26.21;78.05
51297;BME280;37380;45.186;9.792;2023-05-23T09:24:20;100798.69;;;27.88;75.78
51297;BME280;37380;45.186;9.792;2023-05-23T09:26:55;100809.56;;;28.10;87.04
51297;BME280;37380;45.186;9.792;2023-05-23T09:30:10;100700.75;;;26.69;73.87
51297;BME280;37380;45.186;9.792;2023-05-23T09:33:06;100774.25;;;26.30;76.93
51297;BME280;37380;45.186;9.792;2023-05-23T09:35:43;100762.66;;;25.99;78.81
51297;BME280;37380;45.186;9.792;2023-05-23T09:38:28;100748.41;;;27.14;87.07
51297;BME280;37380;45.186;9.792;2023-05-23T09:41:06;100643.25;;;27.04;74.13
51297;BME280;37380;45.186;9.792;2023-05-23T09:44:24;100765.56;;;27.63;82.20
51297;BME280;37380;45.186;9.792;2023-05-23T09:47:10;100790.09;;;28.27;78.94
51297;BME280;37380;45.186;9.792;2023-05-23T09:50:07;100711.25;;;27.81;67.14
51297;BME280;37380;45.186;9.792;2023-05-23T09:52:41;100756.66;;;28.59;68.22
51297;BME280;37380;45.186;9.792;2023-05-23T09:55:14;100732.75;;;27.28;74.85
51297;BME280;37380;45.186;9.792;2023-05-23T09:57:48;100774.38;;;27.66;72.11
51297;BME280;37380;45.186;9.792;2023-05-23T10:00:43;100764.97;;;26.72;74.04
51297;BME280;37380;45.186;9.792;2023-05-23T10:06:50;100792.41;;;27.63;71.90
51297;BME280;37380;45.186;9.792;2023-05-23T10:09:29;100712.38;;;27.99;68.98
51297;BME280;37380;45.186;9.792;2023-05-23T10:14:50;100778.59;;;28.49;77.46
51297;BME280;37380;45.186;9.792;2023-05-23T10:20:34;100760.22;;;28.36;65.59
51297;BME280;37380;45.186;9.792;2023-05-23T10:23:17;100682.69;;;26.16;74.80
51297;BME280;37380;45.186;9.792;2023-05-23T10:25:52;100712.56;;;26.61;73.66
51297;BME280;37380;45.186;9.792;2023-05-23T10:28:25;100720.81;;;26.55;75.76
51297;BME280;37380;45.186;9.792;2023-05-23T10:31:04;100768.91;;;27.96;71.31
51297;BME280;37380;45.186;9.792;2023-05-23T10:33:42;100738.84;;;26.49;71.44
51297;BME280;37380;45.186;9.792;2023-05-23T10:43:26;100677.97;;;29.41;62.08
51297;BME280;37380;45.186;9.792;2023-05-23T10:46:15;100610.34;;;27.50;65.79
51297;BME280;37380;45.186;9.792;2023-05-23T10:48:43;100754.25;;;27.00;70.72
51297;BME280;37380;45.186;9.792;2023-05-23T10:51:15;100757.38;;;26.86;71.58
51297;BME280;37380;45.186;9.792;2023-05-23T10:53:44;100676.97;;;26.28;73.77
51297;BME280;37380;45.186;9.792;2023-05-23T10:56:20;100730.59;;;27.39;71.78
51297;BME280;37380;45.186;9.792;2023-05-23T11:02:59;100756.97;;;27.26;63.66
51297;BME280;37380;45.186;9.792;2023-05-23T11:05:28;100557.91;;;26.38;65.58
51297;BME280;37380;45.186;9.792;2023-05-23T11:08:41;100633.25;;;27.36;76.04
51297;BME280;37380;45.186;9.792;2023-05-23T11:11:21;100677.50;;;26.96;62.96
51297;BME280;37380;45.186;9.792;2023-05-23T11:14:29;100737.00;;;27.35;59.78
51297;BME280;37380;45.186;9.792;2023-05-23T11:17:14;100735.66;;;27.73;60.57
51297;BME280;37380;45.186;9.792;2023-05-23T11:20:03;100708.19;;;27.65;61.95
51297;BME280;37380;45.186;9.792;2023-05-23T11:22:35;100695.47;;;26.66;63.70
51297;BME280;37380;45.186;9.792;2023-05-23T11:25:09;100728.31;;;27.53;62.65
51297;BME280;37380;45.186;9.792;2023-05-23T11:27:39;100646.50;;;27.15;63.47
51297;BME280;37380;45.186;9.792;2023-05-23T11:30:14;100722.78;;;27.58;60.41
51297;BME280;37380;45.186;9.792;2023-05-23T11:32:49;100637.03;;;28.26;56.47
51297;BME280;37380;45.186;9.792;2023-05-23T11:35:17;100653.88;;;28.07;57.81
51297;BME280;37380;45.186;9.792;2023-05-23T11:37:45;100678.69;;;28.81;55.27
51297;BME280;37380;45.186;9.792;2023-05-23T11:40:27;100710.16;;;28.79;55.78
51297;BME280;37380;45.186;9.792;2023-05-23T11:43:33;100658.41;;;27.05;61.84
51297;BME280;37380;45.186;9.792;2023-05-23T11:46:34;100708.31;;;27.62;61.68
51297;BME280;37380;45.186;9.792;2023-05-23T11:49:36;100708.00;;;27.46;61.85
51297;BME280;37380;45.186;9.792;2023-05-23T11:52:14;100695.81;;;27.09;66.01
51297;BME280;37380;45.186;9.792;2023-05-23T11:54:47;100657.03;;;26.93;67.26
51297;BME280;37380;45.186;9.792;2023-05-23T11:57:43;100679.56;;;26.87;66.75
51297;BME280;37380;45.186;9.792;2023-05-23T12:00:10;100610.59;;;26.66;64.19
51297;BME280;37380;45.186;9.792;2023-05-23T12:02:38;100628.25;;;27.25;62.81
51297;BME280;37380;45.186;9.792;2023-05-23T12:05:12;100572.19;;;26.66;61.60
51297;BME280;37380;45.186;9.792;2023-05-23T12:07:47;100683.44;;;27.05;59.58
51297;BME280;37380;45.186;9.792;2023-05-23T12:10:26;100676.59;;;27.23;59.88
51297;BME280;37380;45.186;9.792;2023-05-23T12:13:27;100613.75;;;27.30;56.09
51297;BME280;37380;45.186;9.792;2023-05-23T12:15:56;100609.75;;;27.42;57.41
51297;BME280;37380;45.186;9.792;2023-05-23T12:18:27;100551.47;;;27.46;55.11
51297;BME280;37380;45.186;9.792;2023-05-23T12:21:03;100672.31;;;28.62;65.89
51297;BME280;37380;45.186;9.792;2023-05-23T12:23:34;100641.97;;;27.91;54.04
51297;BME280;37380;45.186;9.792;2023-05-23T12:26:05;100661.38;;;27.24;52.62
51297;BME280;37380;45.186;9.792;2023-05-23T12:28:41;100672.75;;;27.81;53.31
51297;BME280;37380;45.186;9.792;2023-05-23T12:31:14;100544.63;;;26.87;52.77
51297;BME280;37380;45.186;9.792;2023-05-23T12:33:46;100504.91;;;26.73;53.90
51297;BME280;37380;45.186;9.792;2023-05-23T12:36:24;100586.81;;;27.34;54.07
51297;BME280;37380;45.186;9.792;2023-05-23T12:38:52;100444.06;;;27.00;56.97
51297;BME280;37380;45.186;9.792;2023-05-23T12:41:26;100617.94;;;28.55;53.13
51297;BME280;37380;45.186;9.792;2023-05-23T12:44:30;100434.72;;;27.10;51.48
51297;BME280;37380;45.186;9.792;2023-05-23T12:47:44;100593.41;;;28.42;48.32
51297;BME280;37380;45.186;9.792;2023-05-23T12:50:41;100541.06;;;27.60;48.39
51297;BME280;37380;45.186;9.792;2023-05-23T12:53:29;100645.00;;;28.05;46.82
51297;BME280;37380;45.186;9.792;2023-05-23T12:56:07;100424.13;;;27.07;49.31
51297;BME280;37380;45.186;9.792;2023-05-23T12:59:06;100531.75;;;27.70;48.30
51297;BME280;37380;45.186;9.792;2023-05-23T13:01:34;100642.66;;;28.19;48.18
51297;BME280;37380;45.186;9.792;2023-05-23T13:04:01;100613.06;;;27.97;43.67
51297;BME280;37380;45.186;9.792;2023-05-23T13:06:29;100596.44;;;28.33;42.86
51297;BME280;37380;45.186;9.792;2023-05-23T13:08:57;100446.28;;;27.60;43.16
51297;BME280;37380;45.186;9.792;2023-05-23T13:11:25;100536.66;;;27.83;43.69
51297;BME280;37380;45.186;9.792;2023-05-23T13:13:52;100589.25;;;28.34;45.02
51297;BME280;37380;45.186;9.792;2023-05-23T13:16:20;100536.25;;;27.70;45.06
51297;BME280;37380;45.186;9.792;2023-05-23T13:18:49;100408.94;;;26.59;45.17
51297;BME280;37380;45.186;9.792;2023-05-23T13:21:17;100588.16;;;27.69;42.88
51297;BME280;37380;45.186;9.792;2023-05-23T13:23:44;100601.19;;;28.03;43.25
51297;BME280;37380;45.186;9.792;2023-05-23T13:26:11;100622.53;;;28.30;41.56
51297;BME280;37380;45.186;9.792;2023-05-23T13:28:40;100519.47;;;27.63;42.08
51297;BME280;37380;45.186;9.792;2023-05-23T13:31:12;100539.81;;;27.94;39.78
51297;BME280;37380;45.186;9.792;2023-05-23T13:33:39;100558.41;;;28.20;40.28
51297;BME280;37380;45.186;9.792;2023-05-23T13:36:08;100393.41;;;26.93;42.08
51297;BME280;37380;45.186;9.792;2023-05-23T13:38:36;100434.38;;;27.21;42.70
51297;BME280;37380;45.186;9.792;2023-05-23T13:41:10;100393.88;;;27.27;41.13
51297;BME280;37380;45.186;9.792;2023-05-23T13:44:13;100536.22;;;28.15;41.04
51297;BME280;37380;45.186;9.792;2023-05-23T13:47:22;100491.19;;;27.54;43.00
51297;BME280;37380;45.186;9.792;2023-05-23T13:50:25;100515.13;;;28.06;39.99
51297;BME280;37380;45.186;9.792;2023-05-23T13:53:26;100402.34;;;27.62;39.60
51297;BME280;37380;45.186;9.792;2023-05-23T13:56:27;100426.13;;;27.49;44.90
51297;BME280;37380;45.186;9.792;2023-05-23T13:59:17;100534.19;;;28.00;44.61
51297;BME280;37380;45.186;9.792;2023-05-23T14:01:47;100430.41;;;27.53;47.83
51297;BME280;37380;45.186;9.792;2023-05-23T14:04:14;100524.44;;;28.41;44.11
51297;BME280;37380;45.186;9.792;2023-05-23T14:06:41;100545.69;;;28.68;41.97
51297;BME280;37380;45.186;9.792;2023-05-23T14:09:16;100554.31;;;28.34;44.21
51297;BME280;37380;45.186;9.792;2023-05-23T14:12:17;100549.91;;;28.75;44.28
51297;BME280;37380;45.186;9.792;2023-05-23T14:15:12;100543.44;;;28.37;44.19
51297;BME280;37380;45.186;9.792;2023-05-23T14:17:39;100539.56;;;28.44;43.86
51297;BME280;37380;45.186;9.792;2023-05-23T14:20:07;100530.09;;;27.66;44.52
51297;BME280;37380;45.186;9.792;2023-05-23T14:22:34;100547.75;;;28.19;44.13
51297;BME280;37380;45.186;9.792;2023-05-23T14:25:08;100576.50;;;28.81;44.08
51297;BME280;37380;45.186;9.792;2023-05-23T14:28:03;100517.25;;;28.42;44.70
51297;BME280;37380;45.186;9.792;2023-05-23T14:30:30;100496.25;;;28.72;44.81
51297;BME280;37380;45.186;9.792;2023-05-23T14:32:57;100501.41;;;28.77;41.90
51297;BME280;37380;45.186;9.792;2023-05-23T14:35:25;100563.16;;;28.36;42.51
51297;BME280;37380;45.186;9.792;2023-05-23T14:37:52;100484.16;;;28.19;42.26
51297;BME280;37380;45.186;9.792;2023-05-23T14:40:26;100474.38;;;28.59;43.24
51297;BME280;37380;45.186;9.792;2023-05-23T14:43:23;100568.59;;;28.56;45.25
51297;BME280;37380;45.186;9.792;2023-05-23T14:45:50;100442.53;;;27.87;45.36
51297;BME280;37380;45.186;9.792;2023-05-23T14:48:17;100516.06;;;28.27;42.22
51297;BME280;37380;45.186;9.792;2023-05-23T14:50:44;100511.78;;;28.65;42.43
51297;BME280;37380;45.186;9.792;2023-05-23T14:53:12;100473.19;;;28.24;41.91
51297;BME280;37380;45.186;9.792;2023-05-23T14:55:39;100548.69;;;28.40;43.22
51297;BME280;37380;45.186;9.792;2023-05-23T14:58:07;100530.91;;;28.36;42.76
51297;BME280;37380;45.186;9.792;2023-05-23T15:00:34;100520.31;;;28.75;43.20
51297;BME280;37380;45.186;9.792;2023-05-23T15:03:01;100457.13;;;28.65;43.80
51297;BME280;37380;45.186;9.792;2023-05-23T15:05:35;100484.28;;;28.16;41.91
51297;BME280;37380;45.186;9.792;2023-05-23T15:08:39;100492.56;;;28.32;40.24